sensor_id;sensor_type;location;lat;lon;timestamp;pressure;altitude;pressure_sealevel;temperature;humidity
73974;BME280;62336;-26.094;27.994;2023-03-01T00:00:35;84733.65;;;32.44;21.08
73974;BME280;62336;-26.094;27.994;2023-03-01T00:03:02;84729.43;;;32.76;20.94
73974;BME280;62336;-26.094;27.994;2023-03-01T00:05:27;84731.03;;;32.27;21.01
73974;BME280;62336;-26.094;27.994;2023-03-01T02:18:20;84711.59;;;18.57;64.63
73974;BME280;62336;-26.094;27.994;2023-03-01T02:20:52;84715.52;;;21.10;52.63
73974;BME280;62336;-26.094;27.994;2023-03-01T02:23:09;84714.35;;;23.53;45.03
73974;BME280;62336;-26.094;27.994;2023-03-01T02:25:39;84716.93;;;24.32;40.32
73974;BME280;62336;-26.094;27.994;2023-03-01T02:28:04;84717.30;;;25.62;37.20
73974;BME280;62336;-26.094;27.994;2023-03-01T02:30:25;84713.97;;;27.15;34.77
73974;BME280;62336;-26.094;27.994;2023-03-01T02:32:52;84718.01;;;26.94;32.79
73974;BME280;62336;-26.094;27.994;2023-03-01T02:35:16;84714.01;;;27.88;31.54
73974;BME280;62336;-26.094;27.994;2023-03-01T02:37:41;84712.45;;;27.89;31.03
73974;BME280;62336;-26.094;27.994;2023-03-01T02:40:09;84712.00;;;28.64;30.15
73974;BME280;62336;-26.094;27.994;2023-03-01T02:42:39;84713.15;;;29.11;29.23
73974;BME280;62336;-26.094;27.994;2023-03-01T02:44:58;84721.24;;;29.82;28.27
73974;BME280;62336;-26.094;27.994;2023-03-01T02:47:23;84714.52;;;29.93;27.83
73974;BME280;62336;-26.094;27.994;2023-03-01T02:49:48;84712.42;;;30.41;27.24
73974;BME280;62336;-26.094;27.994;2023-03-01T02:52:23;84713.12;;;30.42;27.19
73974;BME280;62336;-26.094;27.994;2023-03-01T02:54:42;84714.64;;;31.20;26.68
73974;BME280;62336;-26.094;27.994;2023-03-01T02:57:04;84714.21;;;31.28;26.33
73974;BME280;62336;-26.094;27.994;2023-03-01T02:59:31;84720.57;;;30.43;26.36
73974;BME280;62336;-26.094;27.994;2023-03-01T03:01:54;84726.97;;;31.03;26.18
73974;BME280;62336;-26.094;27.994;2023-03-01T03:04:20;84722.49;;;30.53;26.11
73974;BME280;62336;-26.094;27.994;2023-03-01T03:06:46;84719.88;;;30.43;25.94
73974;BME280;62336;-26.094;27.994;2023-03-01T03:09:11;84721.69;;;30.88;25.48
73974;BME280;62336;-26.094;27.994;2023-03-01T03:11:36;84722.35;;;30.43;25.92
73974;BME280;62336;-26.094;27.994;2023-03-01T03:14:01;84722.26;;;30.86;26.05
73974;BME280;62336;-26.094;27.994;2023-03-01T03:16:26;84722.69;;;31.07;25.54
73974;BME280;62336;-26.094;27.994;2023-03-01T03:18:51;84726.35;;;31.45;25.00
73974;BME280;62336;-26.094;27.994;2023-03-01T03:21:17;84729.49;;;31.44;24.94
73974;BME280;62336;-26.094;27.994;2023-03-01T03:23:41;84730.43;;;31.34;24.72
73974;BME280;62336;-26.094;27.994;2023-03-01T03:26:07;84730.86;;;31.54;24.56
73974;BME280;62336;-26.094;27.994;2023-03-01T03:28:32;84725.52;;;31.13;24.57
73974;BME280;62336;-26.094;27.994;2023-03-01T03:30:57;84723.36;;;31.61;24.42
73974;BME280;62336;-26.094;27.994;2023-03-01T03:33:22;84724.91;;;31.52;24.40
73974;BME280;62336;-26.094;27.994;2023-03-01T03:35:48;84726.34;;;30.98;24.66
73974;BME280;62336;-26.094;27.994;2023-03-01T03:38:14;84728.91;;;31.44;24.34
73974;BME280;62336;-26.094;27.994;2023-03-01T03:40:39;84728.22;;;31.46;24.62
73974;BME280;62336;-26.094;27.994;2023-03-01T03:43:11;84731.42;;;31.20;24.53
73974;BME280;62336;-26.094;27.994;2023-03-01T03:45:28;84733.67;;;31.70;24.31
73974;BME280;62336;-26.094;27.994;2023-03-01T03:47:54;84734.00;;;31.30;24.45
73974;BME280;62336;-26.094;27.994;2023-03-01T03:50:19;84733.19;;;31.54;24.33
73974;BME280;62336;-26.094;27.994;2023-03-01T03:52:45;84737.60;;;31.31;24.37
73974;BME280;62336;-26.094;27.994;2023-03-01T03:55:12;84737.53;;;31.35;24.69
73974;BME280;62336;-26.094;27.994;2023-03-01T03:57:35;84736.42;;;31.30;24.87
73974;BME280;62336;-26.094;27.994;2023-03-01T04:00:00;84740.62;;;31.42;24.88
73974;BME280;62336;-26.094;27.994;2023-03-01T04:02:26;84745.44;;;31.07;25.14
73974;BME280;62336;-26.094;27.994;2023-03-01T04:04:50;84743.35;;;31.35;25.09
73974;BME280;62336;-26.094;27.994;2023-03-01T04:07:16;84746.61;;;31.06;25.43
73974;BME280;62336;-26.094;27.994;2023-03-01T04:09:41;84745.73;;;31.12;25.57
73974;BME280;62336;-26.094;27.994;2023-03-01T04:12:06;84747.88;;;31.27;25.32
73974;BME280;62336;-26.094;27.994;2023-03-01T04:14:32;84754.81;;;31.24;24.90
73974;BME280;62336;-26.094;27.994;2023-03-01T04:16:57;84755.62;;;31.29;25.22
73974;BME280;62336;-26.094;27.994;2023-03-01T04:19:22;84758.96;;;31.31;25.59
73974;BME280;62336;-26.094;27.994;2023-03-01T04:21:47;84762.47;;;30.84;25.53
73974;BME280;62336;-26.094;27.994;2023-03-01T04:24:13;84763.82;;;30.76;25.85
73974;BME280;62336;-26.094;27.994;2023-03-01T04:26:37;84762.88;;;30.88;25.88
73974;BME280;62336;-26.094;27.994;2023-03-01T04:29:02;84766.40;;;31.14;25.26
73974;BME280;62336;-26.094;27.994;2023-03-01T04:31:28;84770.10;;;31.42;25.11
73974;BME280;62336;-26.094;27.994;2023-03-01T04:33:55;84773.08;;;31.61;24.91
73974;BME280;62336;-26.094;27.994;2023-03-01T04:36:20;84775.28;;;31.36;25.23
73974;BME280;62336;-26.094;27.994;2023-03-01T04:38:45;84775.91;;;31.14;25.38
73974;BME280;62336;-26.094;27.994;2023-03-01T04:41:11;84774.07;;;31.52;25.33
73974;BME280;62336;-26.094;27.994;2023-03-01T04:43:35;84772.94;;;31.49;25.25
73974;BME280;62336;-26.094;27.994;2023-03-01T04:46:01;84774.88;;;31.36;25.37
73974;BME280;62336;-26.094;27.994;2023-03-01T04:48:27;84777.30;;;31.44;25.40
73974;BME280;62336;-26.094;27.994;2023-03-01T04:50:51;84780.27;;;31.35;25.44
73974;BME280;62336;-26.094;27.994;2023-03-01T04:53:17;84779.81;;;31.17;25.75
73974;BME280;62336;-26.094;27.994;2023-03-01T04:55:42;84780.05;;;31.03;25.67
73974;BME280;62336;-26.094;27.994;2023-03-01T04:58:07;84785.72;;;31.69;25.40
73974;BME280;62336;-26.094;27.994;2023-03-01T05:00:33;84781.92;;;31.63;25.25
73974;BME280;62336;-26.094;27.994;2023-03-01T05:03:00;84782.81;;;31.38;25.49
73974;BME280;62336;-26.094;27.994;2023-03-01T05:05:25;84780.92;;;31.63;25.20
73974;BME280;62336;-26.094;27.994;2023-03-01T05:07:48;84785.93;;;31.84;25.10
73974;BME280;62336;-26.094;27.994;2023-03-01T05:10:13;84789.63;;;31.08;25.29
73974;BME280;62336;-26.094;27.994;2023-03-01T05:12:38;84788.84;;;31.70;25.24
73974;BME280;62336;-26.094;27.994;2023-03-01T05:15:04;84793.36;;;31.97;25.10
73974;BME280;62336;-26.094;27.994;2023-03-01T05:17:30;84793.63;;;32.06;25.00
73974;BME280;62336;-26.094;27.994;2023-03-01T05:19:54;84793.48;;;31.95;24.83
73974;BME280;62336;-26.094;27.994;2023-03-01T05:22:21;84795.65;;;31.86;24.76
73974;BME280;62336;-26.094;27.994;2023-03-01T05:24:47;84792.42;;;32.03;24.78
73974;BME280;62336;-26.094;27.994;2023-03-01T05:27:12;84793.13;;;32.05;24.75
73974;BME280;62336;-26.094;27.994;2023-03-01T05:29:37;84786.18;;;32.36;24.47
73974;BME280;62336;-26.094;27.994;2023-03-01T05:32:04;84786.19;;;32.23;24.30
73974;BME280;62336;-26.094;27.994;2023-03-01T05:34:31;84782.62;;;32.69;24.06
73974;BME280;62336;-26.094;27.994;2023-03-01T05:36:55;84782.27;;;32.42;24.41
73974;BME280;62336;-26.094;27.994;2023-03-01T05:39:20;84780.99;;;32.53;24.50
73974;BME280;62336;-26.094;27.994;2023-03-01T05:41:44;84780.78;;;32.58;24.40
73974;BME280;62336;-26.094;27.994;2023-03-01T05:44:11;84785.18;;;33.02;23.95
73974;BME280;62336;-26.094;27.994;2023-03-01T05:46:37;84787.54;;;32.99;22.79
73974;BME280;62336;-26.094;27.994;2023-03-01T05:49:02;84789.19;;;33.21;23.03
73974;BME280;62336;-26.094;27.994;2023-03-01T05:51:28;84789.97;;;33.20;22.99
73974;BME280;62336;-26.094;27.994;2023-03-01T05:53:54;84790.21;;;33.16;22.76
73974;BME280;62336;-26.094;27.994;2023-03-01T05:56:19;84791.37;;;33.42;22.27
73974;BME280;62336;-26.094;27.994;2023-03-01T05:58:45;84790.01;;;33.46;22.38
73974;BME280;62336;-26.094;27.994;2023-03-01T06:01:12;84792.94;;;33.44;22.11
73974;BME280;62336;-26.094;27.994;2023-03-01T06:03:36;84794.87;;;33.74;21.58
73974;BME280;62336;-26.094;27.994;2023-03-01T06:06:01;84797.40;;;33.69;21.62
73974;BME280;62336;-26.094;27.994;2023-03-01T06:08:26;84799.54;;;33.85;21.41
73974;BME280;62336;-26.094;27.994;2023-03-01T06:10:51;84800.15;;;33.83;22.30
73974;BME280;62336;-26.094;27.994;2023-03-01T06:13:17;84802.56;;;33.95;21.65
73974;BME280;62336;-26.094;27.994;2023-03-01T06:15:42;84801.34;;;34.21;21.32
73974;BME280;62336;-26.094;27.994;2023-03-01T06:18:07;84798.41;;;34.34;20.99
73974;BME280;62336;-26.094;27.994;2023-03-01T06:20:33;84801.31;;;34.38;21.38
73974;BME280;62336;-26.094;27.994;2023-03-01T06:22:58;84802.70;;;34.34;21.49
73974;BME280;62336;-26.094;27.994;2023-03-01T06:25:26;84797.13;;;34.75;21.05
73974;BME280;62336;-26.094;27.994;2023-03-01T06:27:49;84795.97;;;35.04;21.12
73974;BME280;62336;-26.094;27.994;2023-03-01T06:30:17;84796.21;;;34.45;21.01
73974;BME280;62336;-26.094;27.994;2023-03-01T06:32:40;84794.69;;;34.56;21.38
73974;BME280;62336;-26.094;27.994;2023-03-01T06:35:06;84796.86;;;34.70;20.86
73974;BME280;62336;-26.094;27.994;2023-03-01T06:37:31;84804.55;;;34.84;20.92
73974;BME280;62336;-26.094;27.994;2023-03-01T06:39:56;84805.43;;;34.93;21.04
73974;BME280;62336;-26.094;27.994;2023-03-01T06:42:21;84805.86;;;34.79;20.92
73974;BME280;62336;-26.094;27.994;2023-03-01T06:44:47;84807.33;;;35.05;20.03
73974;BME280;62336;-26.094;27.994;2023-03-01T06:47:12;84807.26;;;34.94;19.97
73974;BME280;62336;-26.094;27.994;2023-03-01T06:49:37;84810.24;;;35.19;20.03
73974;BME280;62336;-26.094;27.994;2023-03-01T06:52:03;84816.23;;;35.09;19.88
73974;BME280;62336;-26.094;27.994;2023-03-01T06:54:28;84819.46;;;35.31;19.96
73974;BME280;62336;-26.094;27.994;2023-03-01T06:56:53;84819.51;;;35.53;19.90
73974;BME280;62336;-26.094;27.994;2023-03-01T06:59:18;84817.13;;;35.48;20.13
73974;BME280;62336;-26.094;27.994;2023-03-01T07:01:44;84816.75;;;35.32;19.72
73974;BME280;62336;-26.094;27.994;2023-03-01T07:04:10;84816.81;;;35.05;20.35
73974;BME280;62336;-26.094;27.994;2023-03-01T07:06:35;84820.22;;;35.44;19.90
73974;BME280;62336;-26.094;27.994;2023-03-01T07:09:01;84821.79;;;35.15;19.94
73974;BME280;62336;-26.094;27.994;2023-03-01T07:11:26;84823.96;;;35.71;19.57
73974;BME280;62336;-26.094;27.994;2023-03-01T07:13:52;84826.56;;;36.21;19.23
73974;BME280;62336;-26.094;27.994;2023-03-01T07:16:17;84822.85;;;36.24;19.23
73974;BME280;62336;-26.094;27.994;2023-03-01T07:18:43;84822.17;;;35.99;19.26
73974;BME280;62336;-26.094;27.994;2023-03-01T07:21:09;84819.66;;;36.21;19.15
73974;BME280;62336;-26.094;27.994;2023-03-01T07:23:34;84819.65;;;36.15;19.11
73974;BME280;62336;-26.094;27.994;2023-03-01T07:26:00;84816.29;;;35.88;18.96
73974;BME280;62336;-26.094;27.994;2023-03-01T07:28:25;84815.48;;;36.26;18.98
73974;BME280;62336;-26.094;27.994;2023-03-01T07:30:50;84817.05;;;36.43;18.86
73974;BME280;62336;-26.094;27.994;2023-03-01T07:33:16;84812.54;;;36.24;19.46
73974;BME280;62336;-26.094;27.994;2023-03-01T07:35:40;84812.59;;;36.44;19.13
73974;BME280;62336;-26.094;27.994;2023-03-01T07:38:06;84812.82;;;36.65;18.79
73974;BME280;62336;-26.094;27.994;2023-03-01T07:40:31;84813.91;;;36.62;18.96
73974;BME280;62336;-26.094;27.994;2023-03-01T07:42:56;84811.27;;;36.64;18.29
73974;BME280;62336;-26.094;27.994;2023-03-01T07:45:21;84811.34;;;37.05;18.34
73974;BME280;62336;-26.094;27.994;2023-03-01T07:47:47;84809.90;;;37.11;18.56
73974;BME280;62336;-26.094;27.994;2023-03-01T07:50:12;84806.11;;;37.26;18.55
73974;BME280;62336;-26.094;27.994;2023-03-01T07:52:37;84806.70;;;37.43;17.84
73974;BME280;62336;-26.094;27.994;2023-03-01T07:55:03;84803.34;;;37.44;18.44
73974;BME280;62336;-26.094;27.994;2023-03-01T07:57:28;84795.88;;;37.67;18.12
73974;BME280;62336;-26.094;27.994;2023-03-01T07:59:54;84796.01;;;37.63;18.17
73974;BME280;62336;-26.094;27.994;2023-03-01T08:02:19;84791.25;;;37.63;18.01
73974;BME280;62336;-26.094;27.994;2023-03-01T08:04:44;84792.34;;;37.90;17.11
73974;BME280;62336;-26.094;27.994;2023-03-01T08:07:09;84790.78;;;37.75;17.05
73974;BME280;62336;-26.094;27.994;2023-03-01T08:09:35;84790.65;;;37.50;17.42
73974;BME280;62336;-26.094;27.994;2023-03-01T08:11:59;84787.46;;;37.43;17.20
73974;BME280;62336;-26.094;27.994;2023-03-01T08:14:32;84783.63;;;37.68;16.17
73974;BME280;62336;-26.094;27.994;2023-03-01T08:16:51;84784.50;;;37.37;16.68
73974;BME280;62336;-26.094;27.994;2023-03-01T08:19:17;84781.47;;;37.74;16.74
73974;BME280;62336;-26.094;27.994;2023-03-01T08:21:42;84783.89;;;38.04;16.41
73974;BME280;62336;-26.094;27.994;2023-03-01T08:24:08;84780.65;;;38.09;16.09
73974;BME280;62336;-26.094;27.994;2023-03-01T08:26:34;84785.03;;;38.15;15.80
73974;BME280;62336;-26.094;27.994;2023-03-01T08:28:59;84786.82;;;38.27;15.90
73974;BME280;62336;-26.094;27.994;2023-03-01T08:31:25;84791.39;;;37.96;16.16
73974;BME280;62336;-26.094;27.994;2023-03-01T08:33:51;84789.59;;;38.02;15.68
73974;BME280;62336;-26.094;27.994;2023-03-01T08:36:14;84789.46;;;38.00;14.91
73974;BME280;62336;-26.094;27.994;2023-03-01T08:38:39;84790.73;;;38.37;15.24
73974;BME280;62336;-26.094;27.994;2023-03-01T08:41:05;84791.93;;;38.78;15.19
73974;BME280;62336;-26.094;27.994;2023-03-01T08:43:30;84795.19;;;38.53;15.35
73974;BME280;62336;-26.094;27.994;2023-03-01T08:45:55;84790.03;;;38.68;14.40
73974;BME280;62336;-26.094;27.994;2023-03-01T08:48:20;84787.89;;;39.10;13.97
73974;BME280;62336;-26.094;27.994;2023-03-01T08:50:46;84784.93;;;38.71;14.12
73974;BME280;62336;-26.094;27.994;2023-03-01T08:53:11;84779.68;;;38.92;14.04
73974;BME280;62336;-26.094;27.994;2023-03-01T08:55:39;84780.24;;;39.57;14.30
73974;BME280;62336;-26.094;27.994;2023-03-01T08:58:02;84774.40;;;39.27;13.28
73974;BME280;62336;-26.094;27.994;2023-03-01T09:00:27;84772.45;;;39.19;13.79
73974;BME280;62336;-26.094;27.994;2023-03-01T09:02:52;84767.77;;;39.30;13.02
73974;BME280;62336;-26.094;27.994;2023-03-01T09:05:17;84764.30;;;39.40;13.40
73974;BME280;62336;-26.094;27.994;2023-03-01T09:07:42;84756.63;;;39.49;12.81
73974;BME280;62336;-26.094;27.994;2023-03-01T09:10:09;84755.22;;;39.62;13.08
73974;BME280;62336;-26.094;27.994;2023-03-01T09:12:33;84747.67;;;39.71;13.05
73974;BME280;62336;-26.094;27.994;2023-03-01T09:14:58;84749.42;;;39.61;13.15
73974;BME280;62336;-26.094;27.994;2023-03-01T09:17:25;84750.82;;;39.60;12.53
73974;BME280;62336;-26.094;27.994;2023-03-01T09:19:50;84745.32;;;39.78;13.23
73974;BME280;62336;-26.094;27.994;2023-03-01T09:22:15;84740.27;;;39.48;12.59
73974;BME280;62336;-26.094;27.994;2023-03-01T09:24:40;84739.50;;;39.25;13.10
73974;BME280;62336;-26.094;27.994;2023-03-01T09:27:05;84736.56;;;39.35;13.23
73974;BME280;62336;-26.094;27.994;2023-03-01T09:29:30;84737.80;;;39.68;13.28
73974;BME280;62336;-26.094;27.994;2023-03-01T09:31:55;84732.49;;;39.71;12.95
73974;BME280;62336;-26.094;27.994;2023-03-01T09:34:21;84726.85;;;39.81;12.82
73974;BME280;62336;-26.094;27.994;2023-03-01T09:36:46;84721.11;;;39.67;12.54
73974;BME280;62336;-26.094;27.994;2023-03-01T09:39:11;84720.02;;;39.90;12.67
73974;BME280;62336;-26.094;27.994;2023-03-01T09:41:48;84718.81;;;40.11;11.10
73974;BME280;62336;-26.094;27.994;2023-03-01T09:44:05;84715.11;;;39.87;10.69
73974;BME280;62336;-26.094;27.994;2023-03-01T09:46:27;84712.63;;;39.95;10.85
73974;BME280;62336;-26.094;27.994;2023-03-01T09:48:55;84710.85;;;40.15;11.02
73974;BME280;62336;-26.094;27.994;2023-03-01T09:51:21;84716.66;;;40.45;11.15
73974;BME280;62336;-26.094;27.994;2023-03-01T09:53:41;84718.42;;;40.85;11.54
73974;BME280;62336;-26.094;27.994;2023-03-01T09:56:12;84715.36;;;40.60;10.59
73974;BME280;62336;-26.094;27.994;2023-03-01T09:58:41;84712.72;;;40.68;11.01
73974;BME280;62336;-26.094;27.994;2023-03-01T10:01:02;84715.76;;;40.88;11.07
73974;BME280;62336;-26.094;27.994;2023-03-01T10:03:26;84716.93;;;40.88;10.57
73974;BME280;62336;-26.094;27.994;2023-03-01T10:05:55;84716.26;;;40.61;10.04
73974;BME280;62336;-26.094;27.994;2023-03-01T10:08:23;84717.98;;;41.03;10.04
73974;BME280;62336;-26.094;27.994;2023-03-01T10:10:40;84719.79;;;41.20;9.46
73974;BME280;62336;-26.094;27.994;2023-03-01T10:13:10;84719.46;;;41.33;10.61
73974;BME280;62336;-26.094;27.994;2023-03-01T10:15:35;84720.24;;;40.59;9.98
73974;BME280;62336;-26.094;27.994;2023-03-01T10:17:56;84718.70;;;41.18;10.18
73974;BME280;62336;-26.094;27.994;2023-03-01T10:20:21;84717.20;;;40.85;9.99
73974;BME280;62336;-26.094;27.994;2023-03-01T10:22:43;84715.49;;;41.03;10.68
73974;BME280;62336;-26.094;27.994;2023-03-01T10:25:13;84713.34;;;40.68;10.53
73974;BME280;62336;-26.094;27.994;2023-03-01T10:27:41;84713.59;;;40.99;9.77
73974;BME280;62336;-26.094;27.994;2023-03-01T10:30:05;84708.82;;;41.61;10.39
73974;BME280;62336;-26.094;27.994;2023-03-01T10:32:25;84701.92;;;41.58;10.06
73974;BME280;62336;-26.094;27.994;2023-03-01T10:34:49;84704.55;;;40.90;10.45
73974;BME280;62336;-26.094;27.994;2023-03-01T10:37:16;84696.54;;;41.19;9.98
73974;BME280;62336;-26.094;27.994;2023-03-01T10:42:18;84696.26;;;41.52;10.01
73974;BME280;62336;-26.094;27.994;2023-03-01T10:44:39;84693.63;;;41.25;9.93
73974;BME280;62336;-26.094;27.994;2023-03-01T10:47:00;84691.78;;;41.37;11.35
73974;BME280;62336;-26.094;27.994;2023-03-01T10:49:21;84689.46;;;41.62;9.97
73974;BME280;62336;-26.094;27.994;2023-03-01T10:51:46;84682.24;;;41.77;10.76
73974;BME280;62336;-26.094;27.994;2023-03-01T10:54:17;84678.36;;;41.42;10.27
73974;BME280;62336;-26.094;27.994;2023-03-01T10:59:02;84675.53;;;41.53;10.32
73974;BME280;62336;-26.094;27.994;2023-03-01T11:01:28;84672.72;;;41.67;11.15
73974;BME280;62336;-26.094;27.994;2023-03-01T11:06:22;84666.80;;;42.02;11.05
73974;BME280;62336;-26.094;27.994;2023-03-01T11:08:44;84665.97;;;42.07;10.37
73974;BME280;62336;-26.094;27.994;2023-03-01T11:11:19;84659.75;;;41.85;10.91
73974;BME280;62336;-26.094;27.994;2023-03-01T11:13:34;84660.49;;;41.84;11.14
73974;BME280;62336;-26.094;27.994;2023-03-01T11:16:01;84660.39;;;41.68;11.14
73974;BME280;62336;-26.094;27.994;2023-03-01T11:18:24;84664.63;;;41.48;10.91
73974;BME280;62336;-26.094;27.994;2023-03-01T11:20:51;84663.98;;;41.23;11.17
73974;BME280;62336;-26.094;27.994;2023-03-01T11:23:15;84667.31;;;40.93;11.57
73974;BME280;62336;-26.094;27.994;2023-03-01T11:25:43;84663.99;;;40.69;11.55
73974;BME280;62336;-26.094;27.994;2023-03-01T11:28:10;84662.88;;;40.89;11.94
73974;BME280;62336;-26.094;27.994;2023-03-01T11:30:37;84659.36;;;40.69;12.26
73974;BME280;62336;-26.094;27.994;2023-03-01T11:33:08;84660.25;;;40.71;12.68
73974;BME280;62336;-26.094;27.994;2023-03-01T11:35:25;84657.62;;;40.85;12.59
73974;BME280;62336;-26.094;27.994;2023-03-01T11:37:58;84657.85;;;40.80;12.39
73974;BME280;62336;-26.094;27.994;2023-03-01T11:40:17;84657.06;;;40.75;12.77
73974;BME280;62336;-26.094;27.994;2023-03-01T11:42:48;84653.96;;;40.53;12.22
73974;BME280;62336;-26.094;27.994;2023-03-01T11:45:10;84652.09;;;40.72;13.66
73974;BME280;62336;-26.094;27.994;2023-03-01T11:47:40;84651.98;;;41.33;12.38
73974;BME280;62336;-26.094;27.994;2023-03-01T11:52:28;84650.84;;;40.76;11.62
73974;BME280;62336;-26.094;27.994;2023-03-01T11:54:57;84651.26;;;41.23;11.17
73974;BME280;62336;-26.094;27.994;2023-03-01T11:57:18;84647.69;;;41.35;11.27
73974;BME280;62336;-26.094;27.994;2023-03-01T11:59:54;84644.53;;;41.54;11.98
73974;BME280;62336;-26.094;27.994;2023-03-01T12:06:57;84633.30;;;41.38;9.95
73974;BME280;62336;-26.094;27.994;2023-03-01T12:09:32;84634.63;;;41.43;9.97
73974;BME280;62336;-26.094;27.994;2023-03-01T12:11:52;84634.00;;;41.53;10.23
73974;BME280;62336;-26.094;27.994;2023-03-01T12:14:23;84637.78;;;41.81;10.54
73974;BME280;62336;-26.094;27.994;2023-03-01T12:16:42;84632.84;;;41.88;10.36
73974;BME280;62336;-26.094;27.994;2023-03-01T12:19:10;84631.94;;;41.69;10.90
73974;BME280;62336;-26.094;27.994;2023-03-01T12:21:33;84630.88;;;41.81;11.30
73974;BME280;62336;-26.094;27.994;2023-03-01T12:24:00;84622.02;;;41.77;11.60
73974;BME280;62336;-26.094;27.994;2023-03-01T12:26:20;84626.07;;;41.32;11.83
73974;BME280;62336;-26.094;27.994;2023-03-01T12:28:48;84623.83;;;41.73;11.82
73974;BME280;62336;-26.094;27.994;2023-03-01T12:33:36;84627.92;;;40.96;11.97
73974;BME280;62336;-26.094;27.994;2023-03-01T12:36:09;84628.39;;;40.74;11.76
73974;BME280;62336;-26.094;27.994;2023-03-01T12:38:30;84627.71;;;40.81;12.28
73974;BME280;62336;-26.094;27.994;2023-03-01T12:41:04;84626.36;;;40.05;12.37
73974;BME280;62336;-26.094;27.994;2023-03-01T12:43:19;84619.86;;;40.67;12.23
73974;BME280;62336;-26.094;27.994;2023-03-01T12:45:47;84616.08;;;40.29;12.41
73974;BME280;62336;-26.094;27.994;2023-03-01T12:48:11;84616.54;;;40.38;11.94
73974;BME280;62336;-26.094;27.994;2023-03-01T12:50:37;84613.56;;;40.83;11.47
73974;BME280;62336;-26.094;27.994;2023-03-01T12:52:52;84612.36;;;40.63;11.72
73974;BME280;62336;-26.094;27.994;2023-03-01T12:55:24;84607.69;;;40.32;11.71
73974;BME280;62336;-26.094;27.994;2023-03-01T12:57:44;84602.33;;;40.33;12.35
73974;BME280;62336;-26.094;27.994;2023-03-01T13:02:35;84604.90;;;40.87;12.17
73974;BME280;62336;-26.094;27.994;2023-03-01T13:05:05;84600.22;;;40.75;11.80
73974;BME280;62336;-26.094;27.994;2023-03-01T13:07:28;84595.92;;;40.86;12.13
73974;BME280;62336;-26.094;27.994;2023-03-01T13:09:50;84601.26;;;40.57;12.14
73974;BME280;62336;-26.094;27.994;2023-03-01T13:17:01;84592.53;;;40.14;12.51
73974;BME280;62336;-26.094;27.994;2023-03-01T13:19:27;84590.70;;;40.05;12.40
73974;BME280;62336;-26.094;27.994;2023-03-01T13:21:52;84586.90;;;40.74;12.32
73974;BME280;62336;-26.094;27.994;2023-03-01T13:24:27;84590.34;;;40.39;12.44
73974;BME280;62336;-26.094;27.994;2023-03-01T13:29:12;84590.47;;;40.20;13.09
73974;BME280;62336;-26.094;27.994;2023-03-01T13:33:56;84590.39;;;40.59;12.50
73974;BME280;62336;-26.094;27.994;2023-03-01T13:38:48;84591.60;;;40.70;11.82
73974;BME280;62336;-26.094;27.994;2023-03-01T13:41:12;84597.35;;;41.03;11.64
73974;BME280;62336;-26.094;27.994;2023-03-01T13:43:38;84598.58;;;40.96;11.16
73974;BME280;62336;-26.094;27.994;2023-03-01T13:46:10;84592.08;;;40.38;11.36
73974;BME280;62336;-26.094;27.994;2023-03-01T13:48:29;84591.31;;;40.93;11.11
73974;BME280;62336;-26.094;27.994;2023-03-01T13:50:55;84586.33;;;40.97;11.28
73974;BME280;62336;-26.094;27.994;2023-03-01T13:53:19;84585.58;;;40.92;11.72
73974;BME280;62336;-26.094;27.994;2023-03-01T13:55:44;84585.46;;;40.83;11.54
73974;BME280;62336;-26.094;27.994;2023-03-01T13:58:15;84584.63;;;41.02;11.06
73974;BME280;62336;-26.094;27.994;2023-03-01T14:00:36;84581.36;;;40.98;11.09
73974;BME280;62336;-26.094;27.994;2023-03-01T14:03:04;84581.57;;;40.85;11.12
73974;BME280;62336;-26.094;27.994;2023-03-01T14:05:22;84579.64;;;41.09;10.97
73974;BME280;62336;-26.094;27.994;2023-03-01T14:07:52;84576.15;;;41.21;10.84
73974;BME280;62336;-26.094;27.994;2023-03-01T14:10:13;84575.09;;;41.01;11.49
73974;BME280;62336;-26.094;27.994;2023-03-01T14:12:46;84576.73;;;41.07;11.37
73974;BME280;62336;-26.094;27.994;2023-03-01T14:15:06;84579.47;;;41.45;11.47
73974;BME280;62336;-26.094;27.994;2023-03-01T14:17:38;84573.96;;;41.17;11.44
73974;BME280;62336;-26.094;27.994;2023-03-01T14:19:57;84575.75;;;41.19;11.49
73974;BME280;62336;-26.094;27.994;2023-03-01T14:22:21;84572.92;;;41.36;11.28
73974;BME280;62336;-26.094;27.994;2023-03-01T14:24:48;84572.05;;;41.12;11.43
73974;BME280;62336;-26.094;27.994;2023-03-01T14:27:11;84572.06;;;41.15;11.16
73974;BME280;62336;-26.094;27.994;2023-03-01T14:29:36;84571.65;;;41.11;11.79
73974;BME280;62336;-26.094;27.994;2023-03-01T14:32:10;84571.98;;;41.56;10.94
73974;BME280;62336;-26.094;27.994;2023-03-01T14:34:24;84570.75;;;41.31;10.93
73974;BME280;62336;-26.094;27.994;2023-03-01T14:36:48;84573.01;;;41.27;11.29
73974;BME280;62336;-26.094;27.994;2023-03-01T14:39:19;84575.84;;;41.19;11.58
73974;BME280;62336;-26.094;27.994;2023-03-01T14:41:39;84581.28;;;41.85;11.09
73974;BME280;62336;-26.094;27.994;2023-03-01T14:44:06;84590.72;;;41.30;11.48
73974;BME280;62336;-26.094;27.994;2023-03-01T14:46:32;84598.18;;;40.71;11.70
73974;BME280;62336;-26.094;27.994;2023-03-01T14:48:57;84598.70;;;40.77;12.03
73974;BME280;62336;-26.094;27.994;2023-03-01T14:51:19;84603.84;;;40.54;12.37
73974;BME280;62336;-26.094;27.994;2023-03-01T14:53:44;84603.05;;;40.05;12.66
73974;BME280;62336;-26.094;27.994;2023-03-01T14:56:15;84608.90;;;40.36;12.42
73974;BME280;62336;-26.094;27.994;2023-03-01T14:58:34;84614.76;;;40.23;12.76
73974;BME280;62336;-26.094;27.994;2023-03-01T15:01:00;84615.97;;;39.96;13.14
73974;BME280;62336;-26.094;27.994;2023-03-01T15:03:30;84618.59;;;40.02;13.17
73974;BME280;62336;-26.094;27.994;2023-03-01T15:05:50;84616.42;;;39.94;13.37
73974;BME280;62336;-26.094;27.994;2023-03-01T15:08:18;84618.62;;;39.86;13.41
73974;BME280;62336;-26.094;27.994;2023-03-01T15:10:39;84615.05;;;39.93;13.00